Time;durP1;ratioP1;P1;durP2;ratioP2;P2;SDS_P1;SDS_P2;PMS_P1;PMS_P2;Temp;Humidity;BMP_temperature;BMP_pressure;BME280_temperature;BME280_humidity;BME280_pressure;Samples;Min_cycle;Max_cycle;Signal;HPM_P1;HPM_P2
2022/01/23 00:04:33;;;;;;;9.47;6.30;;;;;;;;;;4989227;28;20518;-65
2022/01/23 00:07:03;;;;;;;8.67;6.47;;;;;;;;;;4991040;28;20445;-65
2022/01/23 00:09:29;;;;;;;11.23;7.00;;;;;;;;;;4990863;28;21076;-65
2022/01/23 00:11:57;;;;;;;9.07;7.70;;;;;;;;;;4992914;28;20440;-65
2022/01/23 00:17:20;;;;;;;11.27;8.30;;;;;;;;;;4984333;28;20432;-65
2022/01/23 00:20:00;;;;;;;8.30;7.20;;;;;;;;;;4991337;28;20449;-65
2022/01/23 00:22:36;;;;;;;7.53;6.80;;;;;;;;;;4985534;28;20499;-65
2022/01/23 00:30:32;;;;;;;10.50;7.13;;;;;;;;;;4987944;28;20502;-65
2022/01/23 00:33:00;;;;;;;8.30;7.20;;;;;;;;;;4989706;28;20429;-65
2022/01/23 00:35:27;;;;;;;16.07;9.83;;;;;;;;;;4992175;28;20438;-65
2022/01/23 00:37:53;;;;;;;13.37;8.23;;;;;;;;;;4990553;28;20424;-65
2022/01/23 00:40:19;;;;;;;17.17;8.47;;;;;;;;;;4989231;28;20880;-65
2022/01/23 00:42:45;;;;;;;9.10;8.20;;;;;;;;;;4990282;28;20433;-65
2022/01/23 00:47:41;;;;;;;11.30;7.03;;;;;;;;;;4991371;28;20448;-65
2022/01/23 00:50:07;;;;;;;8.20;6.83;;;;;;;;;;4991003;28;20566;-65
2022/01/23 00:52:33;;;;;;;8.53;7.63;;;;;;;;;;4989096;28;20460;-65
2022/01/23 00:55:00;;;;;;;10.40;6.50;;;;;;;;;;4987861;28;20481;-65
2022/01/23 00:57:26;;;;;;;9.33;6.73;;;;;;;;;;4990824;28;20883;-66
2022/01/23 00:59:52;;;;;;;8.73;7.73;;;;;;;;;;4990242;28;20532;-65
2022/01/23 01:02:18;;;;;;;9.17;8.27;;;;;;;;;;4990603;28;20535;-65
2022/01/23 01:04:44;;;;;;;8.10;7.17;;;;;;;;;;4990851;28;20848;-65
2022/01/23 01:07:10;;;;;;;12.30;6.43;;;;;;;;;;4990546;28;20444;-65
2022/01/23 01:09:36;;;;;;;13.10;6.10;;;;;;;;;;4983966;28;20554;-66
2022/01/23 01:12:08;;;;;;;11.30;6.17;;;;;;;;;;4989847;28;20436;-66
2022/01/23 01:15:12;;;;;;;5.90;5.40;;;;;;;;;;4990138;28;20456;-65
2022/01/23 01:30:12;;;;;;;6.73;6.03;;;;;;;;;;4986701;28;21645;-66
2022/01/23 01:31:20;;;;;;;5.80;5.40;;;;;;;;;;4989354;28;20424;-65
2022/01/23 01:33:55;;;;;;;5.53;5.03;;;;;;;;;;4988865;28;20449;-65
2022/01/23 01:39:06;;;;;;;5.50;5.03;;;;;;;;;;4986917;28;20448;-65
2022/01/23 01:41:34;;;;;;;6.90;4.87;;;;;;;;;;4990288;28;20542;-65
2022/01/23 01:44:00;;;;;;;4.37;4.00;;;;;;;;;;4986701;28;20444;-65
2022/01/23 01:46:28;;;;;;;5.77;4.83;;;;;;;;;;4989563;28;20433;-65
2022/01/23 01:48:54;;;;;;;4.40;4.10;;;;;;;;;;4988809;28;20871;-65
2022/01/23 01:51:20;;;;;;;5.10;4.57;;;;;;;;;;4991152;28;20631;-65
2022/01/23 01:53:55;;;;;;;4.80;4.40;;;;;;;;;;4986773;28;20455;-65
2022/01/23 01:56:21;;;;;;;4.27;4.07;;;;;;;;;;4990480;28;20440;-65
2022/01/23 02:09:29;;;;;;;5.03;4.53;;;;;;;;;;4987196;28;21032;-65
2022/01/23 02:23:08;;;;;;;7.00;5.37;;;;;;;;;;4990521;28;20443;-65
2022/01/23 02:53:19;;;;;;;6.00;4.30;;;;;;;;;;4989032;28;20424;-65
2022/01/23 02:55:45;;;;;;;7.50;4.43;;;;;;;;;;4992700;28;20814;-66
2022/01/23 02:58:14;;;;;;;3.53;3.33;;;;;;;;;;4991836;28;20443;-65
2022/01/23 03:01:07;;;;;;;5.20;4.80;;;;;;;;;;4993449;28;20464;-65
2022/01/23 03:03:37;;;;;;;6.03;3.97;;;;;;;;;;4991573;28;20477;-65
2022/01/23 03:27:52;;;;;;;4.97;4.57;;;;;;;;;;4993766;28;20520;-65
2022/01/23 03:32:47;;;;;;;5.43;4.97;;;;;;;;;;4990393;28;20437;-65
2022/01/23 03:35:14;;;;;;;8.80;5.13;;;;;;;;;;4990091;28;21269;-65
2022/01/23 03:37:40;;;;;;;5.37;4.87;;;;;;;;;;4993518;28;20420;-65
2022/01/23 03:40:06;;;;;;;6.60;5.47;;;;;;;;;;4989602;28;20491;-65
2022/01/23 03:42:35;;;;;;;4.80;4.40;;;;;;;;;;4991893;28;20429;-65
2022/01/23 03:49:30;;;;;;;5.33;4.97;;;;;;;;;;4988965;28;20545;-65
2022/01/23 03:50:39;;;;;;;5.00;4.50;;;;;;;;;;4992301;28;20980;-65
2022/01/23 03:53:05;;;;;;;4.63;4.17;;;;;;;;;;4991969;28;20451;-65
2022/01/23 03:55:32;;;;;;;5.03;4.27;;;;;;;;;;4988377;28;20875;-65
2022/01/23 03:57:58;;;;;;;4.50;3.70;;;;;;;;;;4992353;28;20468;-65
2022/01/23 04:00:24;;;;;;;5.13;4.73;;;;;;;;;;4989048;28;20461;-65
2022/01/23 04:02:51;;;;;;;5.50;4.93;;;;;;;;;;4989603;28;20452;-65
2022/01/23 04:05:17;;;;;;;5.60;5.23;;;;;;;;;;4990068;28;20446;-65
2022/01/23 04:07:43;;;;;;;17.10;5.10;;;;;;;;;;4992794;28;20495;-65
2022/01/23 04:10:12;;;;;;;4.53;4.07;;;;;;;;;;4987147;28;20907;-65
2022/01/23 04:12:57;;;;;;;6.50;4.63;;;;;;;;;;4992335;28;20914;-65
2022/01/23 04:15:40;;;;;;;4.50;4.10;;;;;;;;;;4987590;28;20445;-65
2022/01/23 04:19:07;;;;;;;4.27;4.07;;;;;;;;;;4992045;28;20421;-65
2022/01/23 04:21:17;;;;;;;5.10;4.80;;;;;;;;;;4984891;28;21186;-65
2022/01/23 04:35:16;;;;;;;5.47;4.57;;;;;;;;;;4947952;28;20445;-65
2022/01/23 04:46:12;;;;;;;3.70;3.60;;;;;;;;;;4987223;28;20464;-65
2022/01/23 04:59:35;;;;;;;7.67;4.63;;;;;;;;;;4989863;28;20960;-65
2022/01/23 04:59:46;;;;;;;4.37;4.07;;;;;;;;;;4990609;28;20560;-65
2022/01/23 05:04:38;;;;;;;5.73;5.03;;;;;;;;;;4991453;28;20818;-65
2022/01/23 05:07:08;;;;;;;4.93;4.43;;;;;;;;;;4990579;28;21056;-65
2022/01/23 05:09:34;;;;;;;5.23;4.77;;;;;;;;;;4986953;28;20846;-65
2022/01/23 05:12:01;;;;;;;6.10;5.53;;;;;;;;;;4991813;28;20448;-65
2022/01/23 05:14:31;;;;;;;6.20;5.60;;;;;;;;;;4989719;28;20433;-65
2022/01/23 05:16:57;;;;;;;8.07;5.00;;;;;;;;;;4991073;28;20465;-65
2022/01/23 05:19:23;;;;;;;5.30;4.40;;;;;;;;;;4988341;28;20449;-65
2022/01/23 05:24:26;;;;;;;5.43;4.87;;;;;;;;;;4987617;28;20455;-65
2022/01/23 05:26:58;;;;;;;6.80;5.00;;;;;;;;;;4990775;28;20433;-65
2022/01/23 05:29:24;;;;;;;5.30;4.90;;;;;;;;;;4988836;28;20992;-65
2022/01/23 05:31:51;;;;;;;7.37;5.50;;;;;;;;;;4985945;28;20527;-65
2022/01/23 05:34:17;;;;;;;6.60;5.97;;;;;;;;;;4990184;28;20948;-65
2022/01/23 05:36:43;;;;;;;9.73;6.07;;;;;;;;;;4990667;28;20425;-65
2022/01/23 05:39:09;;;;;;;6.03;5.63;;;;;;;;;;4988228;28;20600;-65
2022/01/23 05:41:35;;;;;;;5.83;5.50;;;;;;;;;;4990932;28;20933;-65
2022/01/23 05:44:02;;;;;;;7.50;6.07;;;;;;;;;;4990186;28;20468;-65
2022/01/23 05:46:28;;;;;;;4.40;4.17;;;;;;;;;;4987239;28;20444;-65
2022/01/23 05:48:54;;;;;;;5.07;4.67;;;;;;;;;;4990053;28;20598;-65
2022/01/23 05:51:20;;;;;;;10.57;4.70;;;;;;;;;;4988095;28;20452;-65
2022/01/23 05:53:47;;;;;;;7.83;4.87;;;;;;;;;;4988209;28;20444;-65
2022/01/23 05:56:13;;;;;;;5.10;4.77;;;;;;;;;;4989243;28;20507;-65
2022/01/23 05:58:39;;;;;;;5.53;5.03;;;;;;;;;;4988449;28;20532;-65
2022/01/23 06:01:06;;;;;;;4.70;4.30;;;;;;;;;;4985810;28;20929;-65
2022/01/23 06:03:32;;;;;;;5.93;5.40;;;;;;;;;;4989353;28;20450;-65
2022/01/23 06:05:57;;;;;;;5.53;5.23;;;;;;;;;;4985995;28;20458;-65
2022/01/23 06:08:25;;;;;;;5.47;5.00;;;;;;;;;;4987937;28;20980;-65
2022/01/23 06:10:56;;;;;;;5.10;3.30;;;;;;;;;;4987247;28;21007;-65
2022/01/23 06:13:22;;;;;;;5.37;4.13;;;;;;;;;;4987323;28;20432;-65
2022/01/23 06:15:48;;;;;;;5.40;4.90;;;;;;;;;;4987795;28;20532;-65
2022/01/23 06:18:14;;;;;;;4.10;3.83;;;;;;;;;;4989769;28;20634;-65
2022/01/23 06:20:40;;;;;;;7.93;5.00;;;;;;;;;;4990285;28;20445;-65
2022/01/23 06:23:06;;;;;;;4.20;4.00;;;;;;;;;;4985842;28;20437;-65
2022/01/23 06:25:34;;;;;;;4.63;4.40;;;;;;;;;;4986873;28;20612;-65
2022/01/23 06:28:00;;;;;;;6.33;4.20;;;;;;;;;;4989375;28;20560;-65
2022/01/23 06:30:26;;;;;;;4.70;4.40;;;;;;;;;;4988294;28;20500;-65
2022/01/23 06:32:52;;;;;;;7.40;4.43;;;;;;;;;;4989671;28;20713;-65
2022/01/23 06:35:18;;;;;;;4.63;4.17;;;;;;;;;;4986165;28;20454;-65
2022/01/23 06:37:44;;;;;;;5.53;4.70;;;;;;;;;;4984968;28;20453;-65
2022/01/23 06:40:11;;;;;;;5.03;4.50;;;;;;;;;;4986484;28;20443;-65
2022/01/23 06:42:37;;;;;;;5.13;4.83;;;;;;;;;;4989751;28;20441;-65
2022/01/23 06:45:03;;;;;;;11.47;4.80;;;;;;;;;;4988518;28;20488;-65
2022/01/23 06:47:29;;;;;;;4.67;4.40;;;;;;;;;;4985993;28;20439;-65
2022/01/23 06:49:55;;;;;;;4.37;4.17;;;;;;;;;;4989312;28;20492;-65
2022/01/23 06:52:21;;;;;;;4.60;4.30;;;;;;;;;;4990060;28;20432;-65
2022/01/23 06:54:47;;;;;;;10.47;5.17;;;;;;;;;;4989659;28;20432;-65
2022/01/23 06:57:13;;;;;;;6.57;4.47;;;;;;;;;;4986118;28;20856;-65
2022/01/23 06:59:39;;;;;;;6.10;5.37;;;;;;;;;;4988038;28;20440;-69
2022/01/23 07:02:05;;;;;;;5.73;5.30;;;;;;;;;;4987527;28;20436;-69
2022/01/23 07:04:31;;;;;;;5.87;5.37;;;;;;;;;;4988902;28;20421;-67
2022/01/23 07:06:57;;;;;;;5.53;5.00;;;;;;;;;;4955885;28;20429;-65
2022/01/23 07:09:23;;;;;;;6.10;5.63;;;;;;;;;;4987794;28;20923;-73
2022/01/23 07:11:49;;;;;;;8.33;5.93;;;;;;;;;;5009342;28;20470;-66
2022/01/23 07:14:15;;;;;;;6.70;6.03;;;;;;;;;;5007383;28;20474;-71
2022/01/23 07:16:41;;;;;;;5.80;5.43;;;;;;;;;;5008800;28;20467;-71
2022/01/23 07:19:07;;;;;;;4.70;4.23;;;;;;;;;;4998126;28;20451;-70
2022/01/23 07:21:33;;;;;;;4.40;4.10;;;;;;;;;;5005692;28;20515;-66
2022/01/23 07:23:59;;;;;;;4.47;4.17;;;;;;;;;;5007077;28;21109;-70
2022/01/23 07:26:27;;;;;;;5.90;4.70;;;;;;;;;;5005703;28;20444;-72
2022/01/23 07:28:55;;;;;;;6.77;3.87;;;;;;;;;;5005810;28;20471;-66
2022/01/23 07:34:16;;;;;;;4.53;4.30;;;;;;;;;;4994213;28;20571;-66
2022/01/23 07:36:42;;;;;;;5.50;5.10;;;;;;;;;;5007892;28;20440;-74
2022/01/23 07:39:08;;;;;;;5.30;5.00;;;;;;;;;;5008461;28;20466;-74
2022/01/23 07:41:35;;;;;;;4.72;4.45;;;;;;;;;;5011694;28;20503;-70
2022/01/23 07:44:00;;;;;;;3.80;3.70;;;;;;;;;;5011385;28;20277;-70
2022/01/23 07:46:27;;;;;;;4.10;3.80;;;;;;;;;;5012676;28;20995;-66
2022/01/23 07:48:53;;;;;;;4.87;4.37;;;;;;;;;;5008885;28;20859;-67
2022/01/23 07:51:19;;;;;;;4.00;3.80;;;;;;;;;;5011705;28;20794;-73
2022/01/23 07:53:45;;;;;;;5.47;4.43;;;;;;;;;;5012460;28;20431;-70
2022/01/23 07:56:11;;;;;;;4.63;4.07;;;;;;;;;;5011878;28;20510;-69
2022/01/23 07:58:37;;;;;;;4.73;4.20;;;;;;;;;;5007789;28;20474;-73
2022/01/23 08:01:03;;;;;;;6.77;4.33;;;;;;;;;;5008790;28;20921;-66
2022/01/23 08:03:29;;;;;;;11.60;6.67;;;;;;;;;;5010118;28;20735;-66
2022/01/23 08:05:55;;;;;;;8.20;6.60;;;;;;;;;;5011213;28;20439;-72
2022/01/23 08:08:21;;;;;;;4.83;4.43;;;;;;;;;;4992603;28;20492;-71
2022/01/23 08:10:47;;;;;;;4.93;3.90;;;;;;;;;;4986296;28;20484;-72
2022/01/23 08:13:13;;;;;;;4.97;4.57;;;;;;;;;;4988166;28;20449;-69
2022/01/23 08:15:39;;;;;;;5.10;4.80;;;;;;;;;;4991610;28;20532;-68
2022/01/23 08:18:05;;;;;;;7.33;4.37;;;;;;;;;;4991531;28;20433;-70
2022/01/23 08:20:33;;;;;;;5.30;4.80;;;;;;;;;;4992087;28;20801;-74
2022/01/23 08:23:01;;;;;;;5.17;4.77;;;;;;;;;;4990690;28;20444;-68
2022/01/23 08:25:27;;;;;;;5.93;4.60;;;;;;;;;;4987430;28;20532;-68
2022/01/23 08:27:53;;;;;;;4.67;3.90;;;;;;;;;;4988137;28;20939;-67
2022/01/23 08:30:19;;;;;;;4.70;4.40;;;;;;;;;;4984813;28;20491;-66
2022/01/23 08:32:45;;;;;;;5.17;3.60;;;;;;;;;;4990137;28;20441;-70
2022/01/23 08:35:11;;;;;;;6.90;4.80;;;;;;;;;;4989127;28;20510;-68
2022/01/23 08:37:37;;;;;;;4.40;4.07;;;;;;;;;;4991062;28;20448;-69
2022/01/23 08:40:04;;;;;;;3.60;3.30;;;;;;;;;;4984862;28;20452;-69
2022/01/23 08:42:30;;;;;;;2.80;2.70;;;;;;;;;;4983727;28;20441;-67
2022/01/23 08:44:56;;;;;;;3.83;3.47;;;;;;;;;;4979236;28;20445;-68
2022/01/23 08:47:23;;;;;;;2.97;2.87;;;;;;;;;;4988091;28;20445;-69
2022/01/23 08:49:50;;;;;;;3.97;3.67;;;;;;;;;;4988286;28;20516;-69
2022/01/23 08:52:18;;;;;;;3.90;3.70;;;;;;;;;;4981767;28;20454;-71
2022/01/23 08:54:45;;;;;;;3.00;2.87;;;;;;;;;;4981681;28;20955;-70
2022/01/23 08:57:12;;;;;;;3.50;3.17;;;;;;;;;;4977098;28;20444;-68
2022/01/23 08:59:38;;;;;;;3.37;3.27;;;;;;;;;;4951157;28;20460;-70
2022/01/23 09:02:04;;;;;;;6.70;4.30;;;;;;;;;;4976969;28;20885;-72
2022/01/23 09:04:30;;;;;;;3.17;2.97;;;;;;;;;;4988106;28;20450;-69
2022/01/23 09:06:56;;;;;;;6.70;3.20;;;;;;;;;;4984238;28;20441;-69
2022/01/23 09:09:24;;;;;;;3.13;3.10;;;;;;;;;;4983858;28;20612;-75
2022/01/23 09:14:23;;;;;;;3.97;3.80;;;;;;;;;;4989546;28;21033;-70
2022/01/23 09:16:50;;;;;;;3.63;3.33;;;;;;;;;;4980515;28;20929;-74
2022/01/23 09:19:17;;;;;;;3.53;3.10;;;;;;;;;;4985204;28;20433;-68
2022/01/23 09:21:44;;;;;;;3.07;2.80;;;;;;;;;;4952221;28;20997;-70
2022/01/23 09:24:10;;;;;;;2.80;2.70;;;;;;;;;;4988973;28;20524;-67
2022/01/23 09:26:39;;;;;;;4.17;3.87;;;;;;;;;;4987082;28;20520;-67
2022/01/23 09:29:17;;;;;;;3.27;3.13;;;;;;;;;;4988999;28;20476;-66
2022/01/23 09:31:50;;;;;;;4.33;4.03;;;;;;;;;;4979354;28;20836;-70
2022/01/23 09:34:18;;;;;;;3.33;2.90;;;;;;;;;;4987468;28;20425;-74
2022/01/23 09:36:44;;;;;;;6.70;3.90;;;;;;;;;;4985302;28;20444;-65
2022/01/23 09:39:14;;;;;;;5.70;4.80;;;;;;;;;;4987857;28;20449;-74
2022/01/23 09:41:42;;;;;;;3.03;2.93;;;;;;;;;;4985658;28;20441;-74
2022/01/23 09:44:08;;;;;;;4.03;3.83;;;;;;;;;;4990040;28;20436;-75
2022/01/23 09:46:34;;;;;;;4.30;4.00;;;;;;;;;;4987692;28;20490;-70
2022/01/23 09:49:00;;;;;;;3.93;3.60;;;;;;;;;;4989298;28;20981;-66
2022/01/23 09:51:26;;;;;;;4.10;3.80;;;;;;;;;;4988219;28;20496;-70
2022/01/23 09:53:53;;;;;;;3.70;3.50;;;;;;;;;;4985103;28;20449;-68
2022/01/23 09:56:27;;;;;;;4.10;3.80;;;;;;;;;;4982453;28;20475;-68
2022/01/23 09:58:54;;;;;;;3.27;3.17;;;;;;;;;;4986746;28;20525;-77
2022/01/23 10:01:20;;;;;;;4.07;3.83;;;;;;;;;;4954796;28;20440;-70
2022/01/23 10:03:46;;;;;;;3.50;3.40;;;;;;;;;;4984310;28;20456;-72
2022/01/23 10:06:12;;;;;;;4.37;4.13;;;;;;;;;;4986680;28;20794;-66
2022/01/23 10:08:38;;;;;;;4.00;3.80;;;;;;;;;;4988564;28;20529;-66
2022/01/23 10:11:09;;;;;;;3.53;3.40;;;;;;;;;;4987539;28;20440;-72
2022/01/23 10:13:35;;;;;;;4.30;3.50;;;;;;;;;;4988087;28;20421;-67
2022/01/23 10:16:01;;;;;;;4.33;4.07;;;;;;;;;;4987364;28;20917;-69
2022/01/23 10:18:27;;;;;;;3.07;2.80;;;;;;;;;;4989536;28;20421;-68
2022/01/23 10:20:53;;;;;;;5.80;3.90;;;;;;;;;;4984923;28;20441;-69
2022/01/23 10:23:20;;;;;;;4.70;3.60;;;;;;;;;;4989067;28;20503;-72
2022/01/23 10:25:48;;;;;;;3.97;3.73;;;;;;;;;;4987721;28;20429;-68
2022/01/23 10:28:19;;;;;;;3.93;3.67;;;;;;;;;;4989291;28;20459;-66
2022/01/23 10:30:48;;;;;;;4.30;3.90;;;;;;;;;;4986011;28;20471;-67
2022/01/23 10:33:28;;;;;;;4.10;3.90;;;;;;;;;;4990262;28;20532;-69
2022/01/23 10:36:10;;;;;;;4.27;3.97;;;;;;;;;;4986963;28;20433;-70
2022/01/23 10:38:57;;;;;;;3.33;3.13;;;;;;;;;;4989298;28;20433;-70
2022/01/23 10:41:41;;;;;;;3.67;3.47;;;;;;;;;;4955913;28;21154;-73
2022/01/23 10:49:47;;;;;;;6.13;4.47;;;;;;;;;;4984229;28;20493;-73
2022/01/23 10:52:32;;;;;;;4.77;4.57;;;;;;;;;;4988544;28;20421;-73
2022/01/23 10:54:59;;;;;;;4.60;4.20;;;;;;;;;;4983516;28;20434;-75
2022/01/23 10:57:33;;;;;;;4.97;4.57;;;;;;;;;;4980842;28;20433;-66
2022/01/23 11:00:02;;;;;;;36.20;17.37;;;;;;;;;;4982138;28;20917;-67
2022/01/23 11:02:28;;;;;;;21.40;13.63;;;;;;;;;;4985271;28;20492;-68
2022/01/23 11:04:59;;;;;;;15.73;11.17;;;;;;;;;;4983526;28;20851;-69
2022/01/23 11:07:26;;;;;;;12.90;7.10;;;;;;;;;;4987768;28;20441;-70
2022/01/23 11:09:56;;;;;;;8.00;6.93;;;;;;;;;;4981330;28;21032;-68
2022/01/23 11:18:01;;;;;;;3.03;2.93;;;;;;;;;;4990171;28;20432;-74
2022/01/23 11:20:42;;;;;;;3.20;3.00;;;;;;;;;;4990587;28;20420;-68
2022/01/23 11:23:34;;;;;;;7.05;5.38;;;;;;;;;;4990990;28;20983;-66
2022/01/23 11:26:00;;;;;;;3.50;3.23;;;;;;;;;;4983447;28;20714;-69
2022/01/23 11:28:44;;;;;;;5.17;3.40;;;;;;;;;;4990008;28;20509;-66
2022/01/23 11:31:12;;;;;;;4.30;3.97;;;;;;;;;;4990447;28;20519;-69
2022/01/23 11:33:38;;;;;;;3.70;3.60;;;;;;;;;;4985746;28;21016;-67
2022/01/23 11:36:05;;;;;;;4.63;4.13;;;;;;;;;;4991143;28;20540;-67
2022/01/23 11:38:31;;;;;;;6.03;3.80;;;;;;;;;;4988456;28;20438;-70
2022/01/23 11:55:29;;;;;;;6.43;6.00;;;;;;;;;;4987043;28;20856;-66
2022/01/23 11:57:55;;;;;;;6.70;6.30;;;;;;;;;;4986205;28;20952;-66
2022/01/23 12:00:26;;;;;;;7.17;5.23;;;;;;;;;;4982332;28;20512;-68
2022/01/23 12:03:07;;;;;;;7.00;6.30;;;;;;;;;;4984605;28;20448;-67
2022/01/23 12:05:38;;;;;;;6.23;5.47;;;;;;;;;;4987795;28;20459;-71
2022/01/23 12:08:27;;;;;;;5.93;5.53;;;;;;;;;;4982652;28;20785;-66
2022/01/23 12:16:32;;;;;;;8.70;5.97;;;;;;;;;;4991285;28;20469;-69
2022/01/23 12:19:18;;;;;;;8.60;5.80;;;;;;;;;;4988947;28;20436;-69
2022/01/23 12:21:45;;;;;;;4.70;4.50;;;;;;;;;;4988599;28;20440;-69
2022/01/23 12:24:13;;;;;;;5.57;5.07;;;;;;;;;;4989531;28;20860;-72
2022/01/23 12:26:39;;;;;;;4.70;4.40;;;;;;;;;;4990567;28;20524;-71
2022/01/23 12:29:14;;;;;;;5.73;5.23;;;;;;;;;;4987060;28;20508;-69
2022/01/23 12:31:41;;;;;;;5.30;5.00;;;;;;;;;;4990337;28;20441;-66
2022/01/23 12:34:07;;;;;;;4.93;4.53;;;;;;;;;;4985541;28;20457;-74
2022/01/23 12:36:34;;;;;;;6.33;5.17;;;;;;;;;;4990983;28;20520;-71
2022/01/23 12:39:09;;;;;;;4.20;4.00;;;;;;;;;;4984943;28;20999;-72
2022/01/23 12:41:36;;;;;;;5.03;4.57;;;;;;;;;;4988622;28;20483;-72
2022/01/23 12:44:07;;;;;;;6.00;5.00;;;;;;;;;;4989860;28;20909;-67
2022/01/23 12:46:38;;;;;;;4.00;3.80;;;;;;;;;;4989122;28;20446;-72
2022/01/23 12:49:18;;;;;;;3.33;3.23;;;;;;;;;;4985938;28;20476;-67
2022/01/23 12:51:45;;;;;;;2.60;2.60;;;;;;;;;;4991058;28;20428;-73
2022/01/23 12:54:13;;;;;;;3.27;3.07;;;;;;;;;;4986934;28;20417;-67
2022/01/23 12:56:43;;;;;;;3.77;3.57;;;;;;;;;;4991543;28;20437;-70
2022/01/23 12:59:12;;;;;;;4.57;4.20;;;;;;;;;;4990198;28;20452;-72
2022/01/23 13:01:41;;;;;;;3.90;3.80;;;;;;;;;;4987960;28;20467;-67
2022/01/23 13:04:08;;;;;;;3.60;3.47;;;;;;;;;;4989447;28;20421;-66
2022/01/23 13:06:49;;;;;;;2.63;2.60;;;;;;;;;;4988190;28;20440;-66
2022/01/23 13:09:20;;;;;;;2.70;2.60;;;;;;;;;;4987000;28;20484;-67
2022/01/23 13:12:03;;;;;;;3.47;2.00;;;;;;;;;;4984349;28;22184;-66
2022/01/23 13:14:38;;;;;;;2.10;2.10;;;;;;;;;;4989845;28;20472;-67
2022/01/23 13:17:43;;;;;;;3.80;3.60;;;;;;;;;;4986382;28;20420;-69
2022/01/23 13:30:48;;;;;;;3.00;2.80;;;;;;;;;;4990713;28;20594;-68
2022/01/23 13:33:20;;;;;;;5.57;4.17;;;;;;;;;;4988059;28;20416;-66
2022/01/23 13:35:51;;;;;;;3.27;3.07;;;;;;;;;;4989398;28;20437;-66
2022/01/23 13:38:18;;;;;;;6.70;3.67;;;;;;;;;;4986396;28;20568;-67
2022/01/23 13:40:45;;;;;;;3.47;3.37;;;;;;;;;;4990242;28;20544;-66
2022/01/23 13:59:13;;;;;;;1.97;1.80;;;;;;;;;;4989980;28;20420;-71
2022/01/23 14:01:56;;;;;;;2.20;2.20;;;;;;;;;;4982865;28;20421;-68
2022/01/23 14:04:24;;;;;;;3.07;2.87;;;;;;;;;;4989509;28;20515;-66
2022/01/23 14:06:50;;;;;;;2.07;2.07;;;;;;;;;;4982719;28;20437;-67
2022/01/23 14:09:17;;;;;;;1.67;1.67;;;;;;;;;;4986636;28;20484;-67
2022/01/23 14:11:43;;;;;;;1.80;1.70;;;;;;;;;;4984296;28;20453;-72
2022/01/23 14:14:13;;;;;;;4.50;1.80;;;;;;;;;;4988311;28;20429;-66
2022/01/23 14:16:40;;;;;;;2.20;2.20;;;;;;;;;;4987528;28;20421;-67
2022/01/23 14:19:13;;;;;;;2.07;1.97;;;;;;;;;;4987353;28;20440;-65
2022/01/23 14:21:43;;;;;;;2.53;1.80;;;;;;;;;;4986255;28;20449;-67
2022/01/23 14:24:09;;;;;;;1.70;1.70;;;;;;;;;;4986824;28;20940;-66
2022/01/23 14:26:35;;;;;;;1.13;1.13;;;;;;;;;;4987982;28;20425;-66
2022/01/23 14:29:17;;;;;;;1.27;1.27;;;;;;;;;;4983276;28;20497;-66
2022/01/23 14:31:43;;;;;;;3.30;3.10;;;;;;;;;;4984571;28;20535;-66
2022/01/23 14:34:23;;;;;;;2.77;2.60;;;;;;;;;;4987707;28;20511;-68
2022/01/23 14:36:56;;;;;;;4.30;3.20;;;;;;;;;;4987353;28;20453;-66
2022/01/23 14:39:23;;;;;;;3.20;2.90;;;;;;;;;;4982506;28;20432;-66
2022/01/23 14:42:10;;;;;;;2.33;2.23;;;;;;;;;;4966087;28;20468;-66
2022/01/23 14:44:36;;;;;;;3.73;3.40;;;;;;;;;;4971471;28;20798;-75
2022/01/23 14:47:02;;;;;;;3.37;3.17;;;;;;;;;;4985427;28;20440;-66
2022/01/23 14:49:30;;;;;;;2.80;2.70;;;;;;;;;;4986718;28;20510;-71
2022/01/23 14:51:57;;;;;;;3.83;3.53;;;;;;;;;;4981271;28;20450;-69
2022/01/23 14:54:25;;;;;;;6.50;2.20;;;;;;;;;;4983980;28;20445;-67
2022/01/23 14:56:51;;;;;;;2.20;2.20;;;;;;;;;;4962212;28;20533;-67
2022/01/23 14:59:17;;;;;;;2.50;2.40;;;;;;;;;;4980521;28;20929;-67
2022/01/23 15:01:45;;;;;;;2.60;2.50;;;;;;;;;;4981431;28;20452;-66
2022/01/23 15:04:11;;;;;;;2.20;2.10;;;;;;;;;;4988811;28;20976;-65
2022/01/23 15:06:41;;;;;;;2.93;2.63;;;;;;;;;;4984904;28;20448;-72
2022/01/23 15:09:09;;;;;;;6.03;4.40;;;;;;;;;;4984002;28;20484;-66
2022/01/23 15:11:35;;;;;;;12.80;6.83;;;;;;;;;;4983101;28;20436;-68
2022/01/23 15:14:02;;;;;;;10.20;5.07;;;;;;;;;;4985392;28;21741;-67
2022/01/23 15:16:28;;;;;;;3.70;2.87;;;;;;;;;;4984697;28;20473;-66
2022/01/23 15:18:54;;;;;;;2.40;2.30;;;;;;;;;;4985506;28;20468;-65
2022/01/23 15:21:20;;;;;;;2.27;2.27;;;;;;;;;;4985076;28;20452;-66
2022/01/23 15:23:46;;;;;;;2.40;2.30;;;;;;;;;;4984768;28;20445;-67
2022/01/23 15:26:12;;;;;;;3.80;2.20;;;;;;;;;;4984238;28;20444;-66
2022/01/23 15:28:38;;;;;;;3.83;3.10;;;;;;;;;;4983346;28;20528;-66
2022/01/23 15:31:04;;;;;;;3.37;3.27;;;;;;;;;;4982343;28;20537;-66
2022/01/23 15:33:30;;;;;;;3.07;2.97;;;;;;;;;;4980659;28;20479;-66
2022/01/23 15:35:56;;;;;;;1.70;1.70;;;;;;;;;;4982463;28;20448;-73
2022/01/23 15:38:26;;;;;;;4.60;4.17;;;;;;;;;;4983431;28;20782;-66
2022/01/23 15:40:53;;;;;;;2.97;2.70;;;;;;;;;;4980615;28;20460;-73
2022/01/23 15:43:19;;;;;;;2.73;2.63;;;;;;;;;;4980578;28;20445;-69
2022/01/23 15:45:45;;;;;;;2.93;2.80;;;;;;;;;;4983400;28;20469;-66
2022/01/23 15:48:11;;;;;;;3.00;2.90;;;;;;;;;;4979375;28;20938;-65
2022/01/23 15:50:37;;;;;;;3.40;3.10;;;;;;;;;;4979459;28;20496;-69
2022/01/23 15:53:03;;;;;;;10.67;6.20;;;;;;;;;;4986704;28;20519;-66
2022/01/23 15:55:29;;;;;;;4.33;3.30;;;;;;;;;;4979630;28;20454;-66
2022/01/23 15:57:56;;;;;;;2.83;2.67;;;;;;;;;;4982105;28;20451;-66
2022/01/23 16:00:22;;;;;;;3.77;3.47;;;;;;;;;;4985803;28;20435;-70
2022/01/23 16:02:48;;;;;;;5.67;3.97;;;;;;;;;;4985110;28;20441;-72
2022/01/23 16:05:15;;;;;;;4.23;3.73;;;;;;;;;;4986178;28;20581;-67
2022/01/23 16:07:44;;;;;;;3.90;3.70;;;;;;;;;;4987050;28;20523;-66
2022/01/23 16:10:11;;;;;;;3.40;3.20;;;;;;;;;;5002503;28;20860;-69
2022/01/23 16:12:41;;;;;;;4.10;3.77;;;;;;;;;;5008840;28;20456;-67
2022/01/23 16:15:08;;;;;;;2.80;2.60;;;;;;;;;;5008816;28;20440;-66
2022/01/23 16:17:34;;;;;;;4.27;4.07;;;;;;;;;;5003954;28;20440;-69
2022/01/23 16:20:02;;;;;;;3.10;2.90;;;;;;;;;;5004901;28;21000;-66
2022/01/23 16:22:28;;;;;;;3.13;3.00;;;;;;;;;;5007813;28;20462;-69
2022/01/23 16:24:54;;;;;;;3.20;2.90;;;;;;;;;;5006976;28;20490;-69
2022/01/23 16:27:20;;;;;;;2.93;2.80;;;;;;;;;;5009827;28;20443;-73
2022/01/23 16:29:46;;;;;;;3.20;3.10;;;;;;;;;;5007694;28;20491;-73
2022/01/23 16:32:13;;;;;;;3.60;3.30;;;;;;;;;;5010495;28;20436;-72
2022/01/23 16:34:39;;;;;;;3.57;3.47;;;;;;;;;;5004581;28;20506;-70
2022/01/23 16:37:05;;;;;;;3.53;3.43;;;;;;;;;;5007173;28;20459;-70
2022/01/23 16:39:31;;;;;;;3.67;3.37;;;;;;;;;;5007699;28;20475;-75
2022/01/23 16:41:57;;;;;;;3.53;3.33;;;;;;;;;;5009622;28;20468;-67
2022/01/23 16:44:24;;;;;;;4.03;3.83;;;;;;;;;;5008039;28;20512;-68
2022/01/23 16:46:50;;;;;;;3.67;3.47;;;;;;;;;;5008547;28;20498;-65
2022/01/23 16:49:16;;;;;;;3.90;3.53;;;;;;;;;;5006046;28;20487;-68
2022/01/23 16:51:42;;;;;;;3.63;3.03;;;;;;;;;;5008305;28;20465;-66
2022/01/23 16:54:09;;;;;;;4.03;3.80;;;;;;;;;;5006090;28;20428;-66
2022/01/23 16:56:36;;;;;;;7.30;6.70;;;;;;;;;;5008853;28;20436;-72
2022/01/23 16:59:03;;;;;;;8.10;7.30;;;;;;;;;;5005092;28;20440;-67
2022/01/23 17:01:29;;;;;;;4.90;4.50;;;;;;;;;;5007751;28;20428;-66
2022/01/23 17:03:56;;;;;;;10.13;6.40;;;;;;;;;;5006579;28;20440;-73
2022/01/23 17:06:22;;;;;;;6.17;5.67;;;;;;;;;;5009702;28;20440;-66
2022/01/23 17:08:48;;;;;;;6.83;6.13;;;;;;;;;;5006554;28;20573;-68
2022/01/23 17:11:14;;;;;;;6.23;5.60;;;;;;;;;;5004257;28;20467;-66
2022/01/23 17:13:43;;;;;;;5.30;4.90;;;;;;;;;;5003932;28;20447;-65
2022/01/23 17:16:09;;;;;;;5.23;3.70;;;;;;;;;;5010417;28;20436;-65
2022/01/23 17:18:36;;;;;;;3.77;3.57;;;;;;;;;;5003260;28;20435;-66
2022/01/23 17:21:02;;;;;;;3.30;3.07;;;;;;;;;;5000623;28;20431;-67
2022/01/23 17:23:28;;;;;;;3.30;3.13;;;;;;;;;;4999331;28;20493;-68
2022/01/23 17:26:00;;;;;;;2.40;2.40;;;;;;;;;;5001075;28;20868;-69
2022/01/23 17:28:26;;;;;;;5.27;4.80;;;;;;;;;;4999931;28;20447;-66
2022/01/23 17:30:52;;;;;;;4.57;4.27;;;;;;;;;;5006117;28;20487;-65
2022/01/23 17:33:18;;;;;;;6.10;5.60;;;;;;;;;;4999771;28;20443;-65
2022/01/23 17:35:45;;;;;;;6.57;5.93;;;;;;;;;;5002837;28;20447;-65
2022/01/23 17:38:12;;;;;;;5.60;5.10;;;;;;;;;;5000878;28;20497;-65
2022/01/23 17:40:38;;;;;;;4.47;4.17;;;;;;;;;;5000768;28;20454;-66
2022/01/23 17:43:04;;;;;;;4.03;3.83;;;;;;;;;;5004461;28;20432;-67
2022/01/23 17:46:06;;;;;;;7.87;5.80;;;;;;;;;;5006169;28;20791;-65
2022/01/23 17:48:45;;;;;;;6.80;6.20;;;;;;;;;;5004462;28;20939;-66
2022/01/23 17:51:15;;;;;;;7.37;6.17;;;;;;;;;;5005355;28;20468;-66
2022/01/23 17:53:41;;;;;;;10.57;7.87;;;;;;;;;;5002478;28;20952;-68
2022/01/23 17:56:07;;;;;;;10.30;8.33;;;;;;;;;;5004952;28;20428;-65
2022/01/23 17:58:33;;;;;;;7.97;7.17;;;;;;;;;;5004254;28;20440;-65
2022/01/23 18:00:59;;;;;;;8.23;6.60;;;;;;;;;;5007605;28;20424;-65
2022/01/23 18:03:25;;;;;;;9.87;7.63;;;;;;;;;;5004046;28;20448;-65
2022/01/23 18:05:52;;;;;;;5.30;4.83;;;;;;;;;;5003654;28;20448;-65
2022/01/23 18:08:18;;;;;;;6.57;6.07;;;;;;;;;;4997143;28;21008;-65
2022/01/23 18:10:44;;;;;;;5.47;5.07;;;;;;;;;;4985961;28;20476;-65
2022/01/23 18:13:11;;;;;;;5.63;5.17;;;;;;;;;;4987370;28;20421;-65